Aérodrome :
LOGIN :

S'inscrire | Disclaimer

   EN    FR    IT 

 










Légende :    VFR   VFR Marginal   IFR   IFR Intensif   IFR Très Intensif
Visi : 
Plafond : 
>= 8 km
>= 3000ft
5 à 8 km
1000 à 3000 ft
1500m à 5 km
500 à 1000 ft
800 à 1500m
200 à 500 ft
< 800m
< 200 ft
Symboles :   Orages  Brouillard  Fortes neiges  Fortes précipitations  Vent > 20 kt
SIGMETs :   Divers  Orages  Givrage  Turbulence  Onde Orograph.  Cendres Volcan.






- Altitude de l'aérodrome : 424 ft
- Code IATA : QGY


LHPR - Györ Per

DERNIER METAR :
  • 270915Z AUTO 15009KT 9999 OVC010 //////TCU 15/12 Q1000 NOSIG

METARs EXPIRÉS :
  • 270845Z AUTO 15007KT 9999 OVC011 14/12 Q1000 NOSIG
  • 270815Z AUTO 12006KT 090V150 9999 -SHRA OVC012 //////TCU 14/12 Q1000 NOSIG
  • 270745Z AUTO 14006KT 9999 OVC014 //////TCU 14/12 Q1000 NOSIG
  • 270715Z AUTO 13004KT 090V180 8000 BKN013 BKN041 OVC061 13/12 Q1000 NOSIG
  • 270645Z AUTO 13004KT 8000 NSC 13/12 Q1000 NOSIG

TAF TAF LHPR
Valide du 27 à 09h jusqu'au 27 à 18h UTC


270815Z 2709/2718 14006KT 9999 SCT015 BKN040
TEMPO 2709/2718 5000 RA SHRA BKN010 BKN015TCU
PROB30
TEMPO 2710/2713 VRB18G30KT 2500 SHRA TSRA BKN010 SCT020CB BKN040
BECMG 2712/2715 31010KT
TEMPO 2713/2716 31020G36KT



MET'MAP, la Météo Aéronautique d'un coup d'oeil ! - Copyright ORBIFLY Décembre 2007 - Disclaimer

ORBIFLY MET'MAP TEAM :

Programmation & Développement : Alexandra Zaïnal
Sur une idée originale de : Baudouin d'Aumeries
Soutien technique & logistique : Manuel Goepfert
Assistance : Marc-Olivier Méhu




SOURCES & CREDITS :

   NOAA